Time;durP1;ratioP1;P1;durP2;ratioP2;P2;SDS_P1;SDS_P2;PMS_P1;PMS_P2;Temp;Humidity;BMP_temperature;BMP_pressure;BME280_temperature;BME280_humidity;BME280_pressure;Samples;Min_cycle;Max_cycle;Signal;HPM_P1;HPM_P2
2024/01/11 00:01:46;;;;;;;33.70;21.45;;;;;;;;;;5118256;27;20043;-82
2024/01/11 00:04:12;;;;;;;32.08;20.92;;;;;;;;;;5118724;27;20055;-82
2024/01/11 00:06:45;;;;;;;31.95;21.02;;;;;;;;;;5136797;27;20079;-82
2024/01/11 00:09:11;;;;;;;29.45;19.13;;;;;;;;;;5136561;27;20491;-82
2024/01/11 00:11:37;;;;;;;32.78;20.13;;;;;;;;;;5136758;27;20054;-82
2024/01/11 00:14:03;;;;;;;35.65;22.27;;;;;;;;;;5118903;27;20083;-82
2024/01/11 00:16:30;;;;;;;29.70;20.05;;;;;;;;;;5101126;27;20051;-82
2024/01/11 00:18:56;;;;;;;30.98;20.08;;;;;;;;;;5118516;27;20039;-82
2024/01/11 00:21:22;;;;;;;34.63;22.17;;;;;;;;;;5118555;27;20051;-82
2024/01/11 00:23:49;;;;;;;36.25;21.13;;;;;;;;;;5118327;27;20061;-82
2024/01/11 00:26:15;;;;;;;32.88;21.48;;;;;;;;;;5117888;27;20039;-82
2024/01/11 00:28:41;;;;;;;36.22;22.98;;;;;;;;;;5118495;27;20047;-82
2024/01/11 00:31:07;;;;;;;36.08;23.73;;;;;;;;;;5117377;27;20344;-82
2024/01/11 00:33:33;;;;;;;41.75;24.88;;;;;;;;;;5117397;27;20046;-82
2024/01/11 00:35:59;;;;;;;36.85;24.42;;;;;;;;;;5117989;27;20103;-82
2024/01/11 00:38:25;;;;;;;36.55;23.00;;;;;;;;;;5118151;27;20043;-82
2024/01/11 00:40:51;;;;;;;36.95;24.20;;;;;;;;;;5117886;27;20058;-82
2024/01/11 00:43:17;;;;;;;39.40;23.98;;;;;;;;;;5117992;27;20047;-81
2024/01/11 00:45:44;;;;;;;36.97;25.17;;;;;;;;;;5100575;27;20043;-81
2024/01/11 00:48:10;;;;;;;36.38;24.52;;;;;;;;;;5136056;27;20416;-82
2024/01/11 00:50:36;;;;;;;38.30;25.25;;;;;;;;;;5117769;27;20051;-81
2024/01/11 00:53:03;;;;;;;38.97;24.60;;;;;;;;;;5117641;27;20047;-82
2024/01/11 00:55:29;;;;;;;38.10;24.58;;;;;;;;;;5100895;27;20043;-82
2024/01/11 00:57:55;;;;;;;39.28;24.98;;;;;;;;;;5117746;27;20043;-82
2024/01/11 01:00:21;;;;;;;40.47;25.73;;;;;;;;;;5117682;27;20054;-82
2024/01/11 01:02:47;;;;;;;37.58;25.20;;;;;;;;;;5099958;27;20398;-82
2024/01/11 01:05:13;;;;;;;35.60;24.38;;;;;;;;;;5136067;27;20047;-82
2024/01/11 01:07:39;;;;;;;39.03;25.52;;;;;;;;;;5117220;27;20047;-82
2024/01/11 01:10:06;;;;;;;37.00;24.33;;;;;;;;;;5100186;27;20463;-82
2024/01/11 01:12:32;;;;;;;39.08;25.95;;;;;;;;;;5117539;27;20055;-82
2024/01/11 01:14:58;;;;;;;39.67;24.55;;;;;;;;;;5117452;27;20051;-82
2024/01/11 01:17:24;;;;;;;42.17;25.80;;;;;;;;;;5117411;27;20054;-82
2024/01/11 01:19:50;;;;;;;42.10;27.67;;;;;;;;;;5117182;27;20490;-82
2024/01/11 01:22:16;;;;;;;43.58;26.73;;;;;;;;;;5100430;27;20394;-82
2024/01/11 01:24:42;;;;;;;39.47;25.95;;;;;;;;;;5117284;27;20049;-82
2024/01/11 01:27:08;;;;;;;38.35;25.75;;;;;;;;;;5117285;27;20041;-82
2024/01/11 01:29:34;;;;;;;44.10;27.05;;;;;;;;;;5099750;27;20179;-82
2024/01/11 01:32:00;;;;;;;39.80;25.55;;;;;;;;;;5098609;27;20051;-82
2024/01/11 01:34:26;;;;;;;40.33;25.08;;;;;;;;;;5100099;27;20454;-82
2024/01/11 01:36:52;;;;;;;39.55;26.42;;;;;;;;;;5117870;27;20485;-82
2024/01/11 01:39:18;;;;;;;42.20;26.92;;;;;;;;;;5116533;27;20596;-82
2024/01/11 01:41:44;;;;;;;42.45;26.90;;;;;;;;;;5116944;27;20051;-82
2024/01/11 01:44:10;;;;;;;43.78;26.15;;;;;;;;;;5116811;27;20118;-82
2024/01/11 01:46:37;;;;;;;40.08;26.70;;;;;;;;;;5134542;27;20532;-82
2024/01/11 01:49:03;;;;;;;43.45;26.63;;;;;;;;;;5116070;27;20505;-81
2024/01/11 01:51:30;;;;;;;44.13;28.33;;;;;;;;;;5116994;27;20051;-82
2024/01/11 01:53:57;;;;;;;42.47;25.63;;;;;;;;;;5099921;27;20039;-82
2024/01/11 01:56:23;;;;;;;43.85;26.90;;;;;;;;;;5116593;27;20047;-82
2024/01/11 01:58:51;;;;;;;42.72;26.83;;;;;;;;;;5099644;27;20134;-82
2024/01/11 02:01:17;;;;;;;43.47;27.90;;;;;;;;;;5115978;27;20475;-82
2024/01/11 02:03:45;;;;;;;48.20;29.15;;;;;;;;;;5116584;27;20077;-82
2024/01/11 02:06:11;;;;;;;42.78;27.17;;;;;;;;;;5099525;27;20043;-82
2024/01/11 02:08:37;;;;;;;46.33;27.92;;;;;;;;;;5116555;28;20096;-82
2024/01/11 02:11:04;;;;;;;43.25;27.17;;;;;;;;;;5134484;27;20130;-82
2024/01/11 02:13:30;;;;;;;46.92;28.10;;;;;;;;;;5116072;27;20176;-82
2024/01/11 02:15:56;;;;;;;47.45;28.30;;;;;;;;;;5116247;28;20058;-82
2024/01/11 02:18:22;;;;;;;46.80;27.77;;;;;;;;;;5116175;27;20043;-82
2024/01/11 02:20:48;;;;;;;43.60;28.02;;;;;;;;;;5116340;28;20130;-82
2024/01/11 02:23:18;;;;;;;50.10;28.83;;;;;;;;;;5099224;28;20389;-82
2024/01/11 02:25:44;;;;;;;46.08;27.98;;;;;;;;;;5116703;28;20465;-82
2024/01/11 02:28:11;;;;;;;46.00;28.52;;;;;;;;;;5099578;28;20043;-82
2024/01/11 02:30:37;;;;;;;43.58;27.85;;;;;;;;;;5115479;28;20138;-82
2024/01/11 02:33:04;;;;;;;49.90;29.33;;;;;;;;;;5134263;28;20054;-82
2024/01/11 02:35:30;;;;;;;44.70;27.65;;;;;;;;;;5116270;28;20126;-82
2024/01/11 02:37:56;;;;;;;49.85;30.20;;;;;;;;;;5099348;28;20043;-82
2024/01/11 02:40:23;;;;;;;50.83;29.65;;;;;;;;;;5134391;28;20124;-82
2024/01/11 02:42:49;;;;;;;47.90;27.80;;;;;;;;;;5134354;28;20094;-82
2024/01/11 02:45:15;;;;;;;44.85;27.38;;;;;;;;;;5116102;28;20092;-82
2024/01/11 02:47:41;;;;;;;45.67;27.80;;;;;;;;;;5115778;28;20046;-82
2024/01/11 02:50:07;;;;;;;46.90;29.27;;;;;;;;;;5115462;28;20104;-82
2024/01/11 02:52:34;;;;;;;46.53;28.27;;;;;;;;;;5116019;28;20074;-82
2024/01/11 02:55:00;;;;;;;45.30;28.10;;;;;;;;;;5098981;28;20051;-82
2024/01/11 02:57:26;;;;;;;46.28;27.52;;;;;;;;;;5118363;27;20042;-82
2024/01/11 02:59:52;;;;;;;47.42;29.45;;;;;;;;;;5119896;27;20130;-82
2024/01/11 03:02:18;;;;;;;45.15;26.35;;;;;;;;;;5137593;27;20203;-82
2024/01/11 03:04:44;;;;;;;42.65;27.15;;;;;;;;;;5119933;27;20043;-82
2024/01/11 03:07:10;;;;;;;51.00;29.55;;;;;;;;;;5137356;27;20054;-82
2024/01/11 03:09:37;;;;;;;44.72;26.58;;;;;;;;;;5119518;27;20039;-82
2024/01/11 03:12:03;;;;;;;47.22;27.30;;;;;;;;;;5119667;27;20043;-82
2024/01/11 03:14:29;;;;;;;45.35;27.08;;;;;;;;;;5119651;27;20039;-82
2024/01/11 03:16:55;;;;;;;44.95;26.98;;;;;;;;;;5138394;27;20066;-82
2024/01/11 03:19:21;;;;;;;44.97;28.27;;;;;;;;;;5119676;27;20078;-82
2024/01/11 03:21:47;;;;;;;45.83;27.73;;;;;;;;;;5119326;27;20047;-82
2024/01/11 03:24:14;;;;;;;45.88;27.30;;;;;;;;;;5102549;27;20054;-82
2024/01/11 03:26:40;;;;;;;47.22;27.08;;;;;;;;;;5085689;27;20047;-82
2024/01/11 03:29:06;;;;;;;49.70;29.95;;;;;;;;;;5119133;27;20391;-82
2024/01/11 03:31:32;;;;;;;45.70;27.23;;;;;;;;;;5102119;27;20230;-82
2024/01/11 03:33:58;;;;;;;49.45;27.75;;;;;;;;;;5119567;27;20035;-82
2024/01/11 03:36:25;;;;;;;48.17;28.50;;;;;;;;;;5102293;27;20050;-82
2024/01/11 03:38:51;;;;;;;46.70;27.73;;;;;;;;;;5119314;27;20046;-82
2024/01/11 03:41:17;;;;;;;50.83;29.92;;;;;;;;;;5119061;27;20039;-82
2024/01/11 03:43:44;;;;;;;47.03;28.00;;;;;;;;;;5084761;27;20502;-82
2024/01/11 03:46:10;;;;;;;47.78;28.95;;;;;;;;;;5119046;27;20043;-82
2024/01/11 03:48:36;;;;;;;49.22;27.73;;;;;;;;;;5119037;27;20399;-82
2024/01/11 03:51:02;;;;;;;49.70;28.85;;;;;;;;;;5098170;28;20055;-82
2024/01/11 03:53:29;;;;;;;47.17;28.38;;;;;;;;;;5115451;28;20413;-82
2024/01/11 03:55:55;;;;;;;43.10;26.98;;;;;;;;;;5115514;28;20042;-82
2024/01/11 03:58:21;;;;;;;46.80;27.98;;;;;;;;;;5115147;28;20051;-82
2024/01/11 04:00:47;;;;;;;49.22;28.85;;;;;;;;;;5114878;28;20039;-82
2024/01/11 04:03:13;;;;;;;47.63;28.30;;;;;;;;;;5115297;28;20055;-82
2024/01/11 04:05:39;;;;;;;45.10;27.38;;;;;;;;;;5115498;28;20039;-82
2024/01/11 04:08:09;;;;;;;46.95;28.67;;;;;;;;;;5113834;28;20035;-82
2024/01/11 04:10:35;;;;;;;46.80;28.20;;;;;;;;;;5114992;28;20092;-82
2024/01/11 04:13:01;;;;;;;50.42;27.48;;;;;;;;;;5097861;28;20047;-82
2024/01/11 04:15:27;;;;;;;48.35;27.95;;;;;;;;;;5097791;28;20043;-82
2024/01/11 04:17:53;;;;;;;48.67;27.10;;;;;;;;;;5115068;28;20162;-82
2024/01/11 04:20:19;;;;;;;46.65;27.75;;;;;;;;;;5114910;28;20043;-82
2024/01/11 04:22:45;;;;;;;46.60;27.20;;;;;;;;;;5098056;28;20051;-82
2024/01/11 04:25:11;;;;;;;44.65;26.27;;;;;;;;;;5097608;28;20051;-82
2024/01/11 04:27:38;;;;;;;46.70;28.40;;;;;;;;;;5114914;28;20039;-82
2024/01/11 04:30:04;;;;;;;49.55;27.95;;;;;;;;;;5114535;28;20035;-82
2024/01/11 04:32:30;;;;;;;47.47;27.50;;;;;;;;;;5114145;28;20044;-82
2024/01/11 04:34:56;;;;;;;49.30;28.27;;;;;;;;;;5115641;28;20047;-82
2024/01/11 04:37:22;;;;;;;49.95;27.73;;;;;;;;;;5097716;28;20054;-82
2024/01/11 04:39:48;;;;;;;47.50;27.58;;;;;;;;;;5114582;28;20043;-82
2024/01/11 04:42:14;;;;;;;49.38;28.52;;;;;;;;;;5115653;28;20104;-82
2024/01/11 04:44:40;;;;;;;47.78;28.15;;;;;;;;;;5114454;28;20055;-82
2024/01/11 04:47:08;;;;;;;49.17;28.42;;;;;;;;;;5114343;28;20048;-82
2024/01/11 04:49:34;;;;;;;44.15;26.27;;;;;;;;;;5114128;28;20077;-81
2024/01/11 04:52:00;;;;;;;49.83;27.70;;;;;;;;;;5114461;28;20048;-81
2024/01/11 04:54:26;;;;;;;45.97;26.95;;;;;;;;;;5097437;28;20055;-82
2024/01/11 04:56:52;;;;;;;47.50;27.80;;;;;;;;;;5080504;28;20043;-82
2024/01/11 04:59:19;;;;;;;47.42;28.40;;;;;;;;;;5113899;28;20134;-82
2024/01/11 05:01:46;;;;;;;45.30;26.77;;;;;;;;;;5113208;28;20055;-82
2024/01/11 05:04:12;;;;;;;49.67;28.27;;;;;;;;;;5114087;28;20242;-82
2024/01/11 05:06:38;;;;;;;48.15;27.65;;;;;;;;;;5114070;28;20039;-82
2024/01/11 05:09:04;;;;;;;48.60;27.58;;;;;;;;;;5096659;28;20044;-82
2024/01/11 05:11:30;;;;;;;44.05;26.80;;;;;;;;;;5113885;28;20043;-82
2024/01/11 05:13:56;;;;;;;48.53;28.10;;;;;;;;;;5113987;28;20051;-82
2024/01/11 05:16:24;;;;;;;45.65;26.80;;;;;;;;;;5114883;28;20055;-82
2024/01/11 05:18:51;;;;;;;49.42;28.77;;;;;;;;;;5113351;28;20035;-82
2024/01/11 05:21:17;;;;;;;47.13;27.75;;;;;;;;;;5113931;28;20464;-82
2024/01/11 05:23:43;;;;;;;44.85;27.67;;;;;;;;;;5096905;28;20054;-82
2024/01/11 05:26:10;;;;;;;48.95;28.05;;;;;;;;;;5113748;28;20055;-82
2024/01/11 05:28:38;;;;;;;51.75;30.50;;;;;;;;;;5113408;28;20054;-82
2024/01/11 05:31:05;;;;;;;51.83;29.17;;;;;;;;;;5112779;28;20380;-82
2024/01/11 05:33:31;;;;;;;49.72;28.05;;;;;;;;;;5096780;28;20142;-82
2024/01/11 05:35:57;;;;;;;53.28;30.20;;;;;;;;;;5113303;28;20509;-82
2024/01/11 05:38:23;;;;;;;49.47;28.48;;;;;;;;;;5113340;28;20044;-82
2024/01/11 05:40:49;;;;;;;53.33;29.27;;;;;;;;;;5113647;28;20180;-82
2024/01/11 05:43:15;;;;;;;56.33;32.63;;;;;;;;;;5096387;28;20043;-82
2024/01/11 05:45:41;;;;;;;50.67;29.13;;;;;;;;;;5113175;28;20048;-82
2024/01/11 05:48:07;;;;;;;56.00;30.55;;;;;;;;;;5096022;28;20047;-82
2024/01/11 05:50:33;;;;;;;57.45;31.70;;;;;;;;;;5079056;28;20058;-82
2024/01/11 05:52:59;;;;;;;55.95;31.02;;;;;;;;;;5113172;28;20052;-82
2024/01/11 05:55:25;;;;;;;53.47;30.20;;;;;;;;;;5079475;28;20083;-82
2024/01/11 05:57:51;;;;;;;52.25;30.52;;;;;;;;;;5096275;28;20094;-82
2024/01/11 06:00:18;;;;;;;57.55;30.92;;;;;;;;;;5113137;28;20043;-82
2024/01/11 06:02:44;;;;;;;55.47;31.77;;;;;;;;;;5112483;28;20048;-82
2024/01/11 06:05:12;;;;;;;55.60;30.58;;;;;;;;;;5079275;28;20134;-82
2024/01/11 06:07:38;;;;;;;54.25;29.95;;;;;;;;;;5112961;28;20043;-82
2024/01/11 06:10:05;;;;;;;53.78;29.88;;;;;;;;;;5112783;28;20044;-82
2024/01/11 06:12:32;;;;;;;54.53;29.95;;;;;;;;;;5112781;28;20445;-82
2024/01/11 06:14:58;;;;;;;52.22;30.05;;;;;;;;;;5112914;28;20035;-82
2024/01/11 06:17:24;;;;;;;54.78;29.98;;;;;;;;;;5112847;28;20051;-82
2024/01/11 06:19:50;;;;;;;51.42;28.98;;;;;;;;;;5112535;28;20059;-82
2024/01/11 06:22:16;;;;;;;56.38;31.35;;;;;;;;;;5095737;28;20035;-82
2024/01/11 06:24:42;;;;;;;57.85;31.35;;;;;;;;;;5113032;28;20405;-82
2024/01/11 06:27:08;;;;;;;55.58;31.27;;;;;;;;;;5112875;28;20188;-82
2024/01/11 06:29:34;;;;;;;59.55;33.25;;;;;;;;;;5095669;28;20040;-82
2024/01/11 06:32:00;;;;;;;55.40;30.73;;;;;;;;;;5113880;28;20044;-82
2024/01/11 06:34:26;;;;;;;57.20;32.05;;;;;;;;;;5116943;28;20460;-82
2024/01/11 06:36:52;;;;;;;61.13;32.53;;;;;;;;;;5117163;28;20395;-82
2024/01/11 06:39:18;;;;;;;55.28;32.33;;;;;;;;;;5117825;28;20097;-82
2024/01/11 06:41:44;;;;;;;57.20;32.25;;;;;;;;;;5116802;28;20048;-82
2024/01/11 06:44:10;;;;;;;58.00;31.70;;;;;;;;;;5117067;28;20051;-82
2024/01/11 06:46:39;;;;;;;55.90;31.13;;;;;;;;;;5099823;28;20044;-82
2024/01/11 06:49:05;;;;;;;57.38;32.45;;;;;;;;;;5101857;27;20047;-81
2024/01/11 06:51:31;;;;;;;59.40;33.05;;;;;;;;;;5120209;27;20094;-82
2024/01/11 06:53:59;;;;;;;58.30;32.33;;;;;;;;;;5120120;27;20043;-82
2024/01/11 06:56:25;;;;;;;60.35;33.75;;;;;;;;;;5119842;27;20130;-82
2024/01/11 06:58:52;;;;;;;56.80;33.08;;;;;;;;;;5137664;27;20547;-82
2024/01/11 07:01:18;;;;;;;58.47;31.60;;;;;;;;;;5119235;27;20107;-82
2024/01/11 07:03:45;;;;;;;57.38;31.98;;;;;;;;;;5113374;28;20043;-82
2024/01/11 07:06:11;;;;;;;65.10;34.47;;;;;;;;;;5099431;28;20046;-82
2024/01/11 07:08:37;;;;;;;58.63;32.85;;;;;;;;;;5099447;28;20047;-82
2024/01/11 07:11:03;;;;;;;60.60;32.63;;;;;;;;;;5082322;28;20368;-82
2024/01/11 07:13:31;;;;;;;65.15;35.05;;;;;;;;;;5082168;28;20054;-82
2024/01/11 07:15:57;;;;;;;60.67;33.17;;;;;;;;;;5082348;28;20066;-82
2024/01/11 07:18:24;;;;;;;58.72;32.13;;;;;;;;;;5099339;28;20476;-82
2024/01/11 07:20:51;;;;;;;60.15;33.35;;;;;;;;;;5082913;28;20061;-82
2024/01/11 07:23:17;;;;;;;57.70;32.80;;;;;;;;;;5082306;28;20051;-82
2024/01/11 07:25:43;;;;;;;63.75;34.33;;;;;;;;;;5117086;28;20083;-82
2024/01/11 07:28:09;;;;;;;61.00;35.03;;;;;;;;;;5098991;28;20085;-82
2024/01/11 07:30:35;;;;;;;66.03;34.13;;;;;;;;;;5098988;28;20088;-82
2024/01/11 07:33:02;;;;;;;61.25;32.65;;;;;;;;;;5081561;28;20058;-82
2024/01/11 07:35:28;;;;;;;65.20;33.63;;;;;;;;;;5098578;28;20044;-82
2024/01/11 07:37:54;;;;;;;60.05;32.97;;;;;;;;;;5117112;28;20051;-82
2024/01/11 07:40:20;;;;;;;59.58;33.75;;;;;;;;;;5098842;28;20185;-82
2024/01/11 07:42:47;;;;;;;62.53;32.85;;;;;;;;;;5098509;28;20082;-82
2024/01/11 07:45:13;;;;;;;68.22;35.97;;;;;;;;;;5081799;28;20146;-82
2024/01/11 07:47:43;;;;;;;61.22;33.95;;;;;;;;;;5082129;28;20043;-82
2024/01/11 07:50:09;;;;;;;65.53;34.55;;;;;;;;;;5098296;28;20055;-82
2024/01/11 07:52:36;;;;;;;58.25;33.30;;;;;;;;;;5116606;28;20057;-84
2024/01/11 07:55:06;;;;;;;63.60;33.72;;;;;;;;;;5117456;27;20074;-83
2024/01/11 07:57:33;;;;;;;61.80;33.83;;;;;;;;;;5119000;27;20055;-82
2024/01/11 07:59:59;;;;;;;64.63;33.92;;;;;;;;;;5119127;27;20130;-83
2024/01/11 08:02:25;;;;;;;65.78;36.15;;;;;;;;;;5118446;27;20097;-83
2024/01/11 08:04:54;;;;;;;66.70;34.85;;;;;;;;;;5111499;28;20035;-85
2024/01/11 08:07:20;;;;;;;69.95;35.60;;;;;;;;;;5081598;28;20505;-87
2024/01/11 08:09:46;;;;;;;67.15;35.05;;;;;;;;;;5098264;28;20035;-86
2024/01/11 08:12:18;;;;;;;67.18;33.88;;;;;;;;;;5081649;28;20058;-86
2024/01/11 08:14:46;;;;;;;67.80;35.33;;;;;;;;;;5081718;28;20059;-86
2024/01/11 08:17:13;;;;;;;75.28;36.50;;;;;;;;;;5081899;28;20074;-85
2024/01/11 08:19:40;;;;;;;68.20;34.95;;;;;;;;;;5082048;28;20043;-88
2024/01/11 08:22:06;;;;;;;69.28;34.90;;;;;;;;;;5081214;28;20391;-83
2024/01/11 08:24:34;;;;;;;71.60;36.70;;;;;;;;;;5098369;28;20050;-86
2024/01/11 08:27:01;;;;;;;68.65;35.30;;;;;;;;;;5081069;28;20048;-82
2024/01/11 08:29:27;;;;;;;71.63;37.35;;;;;;;;;;5098058;28;20035;-81
2024/01/11 08:31:57;;;;;;;72.65;36.67;;;;;;;;;;5097436;28;20054;-83
2024/01/11 08:34:26;;;;;;;71.47;35.33;;;;;;;;;;5097967;28;20043;-87
2024/01/11 08:36:52;;;;;;;67.45;36.70;;;;;;;;;;5115917;28;20180;-83
2024/01/11 08:39:18;;;;;;;73.03;36.63;;;;;;;;;;5080687;28;20047;-82
2024/01/11 08:41:44;;;;;;;71.47;37.28;;;;;;;;;;5080895;28;20043;-81
2024/01/11 08:44:10;;;;;;;67.85;38.67;;;;;;;;;;5097390;28;20059;-83
2024/01/11 08:46:37;;;;;;;71.35;37.40;;;;;;;;;;5097450;28;20090;-81
2024/01/11 08:49:04;;;;;;;71.18;38.25;;;;;;;;;;5080854;28;20051;-80
2024/01/11 08:51:30;;;;;;;77.97;37.85;;;;;;;;;;5100608;28;20134;-80
2024/01/11 08:53:56;;;;;;;76.13;39.15;;;;;;;;;;5096753;28;20043;-80
2024/01/11 08:56:22;;;;;;;69.22;37.13;;;;;;;;;;5080729;28;20055;-81
2024/01/11 08:58:49;;;;;;;74.22;38.13;;;;;;;;;;5097466;28;20044;-81
2024/01/11 09:01:15;;;;;;;77.13;40.42;;;;;;;;;;5114822;28;20047;-81
2024/01/11 09:03:41;;;;;;;71.63;38.58;;;;;;;;;;5097262;28;20059;-81
2024/01/11 09:06:07;;;;;;;79.65;40.22;;;;;;;;;;5097296;28;20043;-81
2024/01/11 09:08:34;;;;;;;78.70;38.58;;;;;;;;;;5097878;28;20051;-81
2024/01/11 09:11:00;;;;;;;78.97;39.35;;;;;;;;;;5096906;28;20521;-81
2024/01/11 09:13:27;;;;;;;70.43;36.70;;;;;;;;;;5097149;28;20051;-81
2024/01/11 09:15:53;;;;;;;72.53;37.42;;;;;;;;;;5097657;28;20399;-81
2024/01/11 09:18:20;;;;;;;73.10;37.50;;;;;;;;;;5097157;28;20422;-81
2024/01/11 09:20:47;;;;;;;72.68;37.10;;;;;;;;;;5096986;28;20051;-81
2024/01/11 09:23:13;;;;;;;76.78;38.03;;;;;;;;;;5096958;28;20056;-81
2024/01/11 09:25:40;;;;;;;71.63;36.88;;;;;;;;;;5096924;28;20044;-81
2024/01/11 09:28:06;;;;;;;71.78;36.83;;;;;;;;;;5114845;28;20070;-81
2024/01/11 09:30:32;;;;;;;73.80;37.30;;;;;;;;;;5079664;28;20043;-81
2024/01/11 09:32:58;;;;;;;74.78;38.00;;;;;;;;;;5114634;28;20051;-82
2024/01/11 09:35:24;;;;;;;77.28;37.08;;;;;;;;;;5080107;28;20050;-80
2024/01/11 09:37:51;;;;;;;73.65;35.75;;;;;;;;;;5096726;28;20096;-81
2024/01/11 09:40:17;;;;;;;77.68;39.17;;;;;;;;;;5114625;28;20087;-81
2024/01/11 09:42:43;;;;;;;77.25;38.67;;;;;;;;;;5096698;28;20051;-81
2024/01/11 09:45:12;;;;;;;78.53;38.60;;;;;;;;;;5096786;28;20051;-81
2024/01/11 09:47:39;;;;;;;74.07;38.53;;;;;;;;;;5096271;28;20126;-81
2024/01/11 09:50:06;;;;;;;76.38;37.63;;;;;;;;;;5114749;28;20047;-81
2024/01/11 09:52:32;;;;;;;74.80;36.38;;;;;;;;;;5079578;28;20427;-81
2024/01/11 09:54:59;;;;;;;72.32;35.72;;;;;;;;;;5096478;28;20192;-81
2024/01/11 09:57:27;;;;;;;77.38;39.88;;;;;;;;;;5096596;28;20541;-81
2024/01/11 09:59:55;;;;;;;72.55;36.88;;;;;;;;;;5096622;28;20422;-81
2024/01/11 10:02:22;;;;;;;75.22;37.22;;;;;;;;;;5095755;28;20100;-81
2024/01/11 10:04:48;;;;;;;76.55;37.33;;;;;;;;;;5096244;28;20043;-81
2024/01/11 10:07:15;;;;;;;72.53;38.00;;;;;;;;;;5114294;28;20044;-80
2024/01/11 10:09:41;;;;;;;66.93;35.20;;;;;;;;;;5095465;28;20035;-81
2024/01/11 10:12:09;;;;;;;73.05;36.85;;;;;;;;;;5095966;28;20044;-81
2024/01/11 10:14:35;;;;;;;72.90;36.72;;;;;;;;;;5096155;28;20051;-81
2024/01/11 10:17:01;;;;;;;74.93;38.47;;;;;;;;;;5114544;28;20048;-81
2024/01/11 10:19:27;;;;;;;73.00;37.75;;;;;;;;;;5096141;28;20134;-80
2024/01/11 10:21:53;;;;;;;75.90;38.03;;;;;;;;;;5096110;28;20052;-81
2024/01/11 10:24:20;;;;;;;73.75;38.50;;;;;;;;;;5095738;28;20047;-81
2024/01/11 10:26:46;;;;;;;79.10;39.95;;;;;;;;;;5096087;28;20047;-80
2024/01/11 10:29:13;;;;;;;78.63;39.83;;;;;;;;;;5095847;28;20045;-80
2024/01/11 10:31:39;;;;;;;74.22;38.47;;;;;;;;;;5113619;28;20051;-80
2024/01/11 10:34:06;;;;;;;74.47;37.65;;;;;;;;;;5096235;28;20055;-80
2024/01/11 10:36:32;;;;;;;69.18;37.10;;;;;;;;;;5079126;28;20051;-80
2024/01/11 10:39:00;;;;;;;68.93;36.53;;;;;;;;;;5095711;28;20454;-80
2024/01/11 10:41:27;;;;;;;69.75;36.28;;;;;;;;;;5114672;28;20123;-81
2024/01/11 10:43:54;;;;;;;66.53;35.92;;;;;;;;;;5113966;28;20052;-80
2024/01/11 10:46:22;;;;;;;64.53;33.75;;;;;;;;;;5114295;28;20079;-81
2024/01/11 10:48:52;;;;;;;64.13;34.25;;;;;;;;;;5095581;28;20089;-80
2024/01/11 10:51:18;;;;;;;67.03;35.58;;;;;;;;;;5113415;28;20097;-80
2024/01/11 10:53:48;;;;;;;68.53;34.92;;;;;;;;;;5113797;28;20078;-80
2024/01/11 10:56:18;;;;;;;66.28;33.88;;;;;;;;;;5114049;28;20547;-80
2024/01/11 10:58:46;;;;;;;66.60;34.58;;;;;;;;;;5095673;28;20048;-81
2024/01/11 11:01:13;;;;;;;68.28;35.75;;;;;;;;;;5095786;28;20051;-80
2024/01/11 11:03:40;;;;;;;66.82;34.72;;;;;;;;;;5095237;28;20434;-80
2024/01/11 11:06:07;;;;;;;66.05;33.67;;;;;;;;;;5113579;28;20051;-80
2024/01/11 11:08:33;;;;;;;66.22;34.15;;;;;;;;;;5078614;28;20143;-81
2024/01/11 11:11:05;;;;;;;62.42;35.00;;;;;;;;;;5113467;28;20039;-80
2024/01/11 11:13:32;;;;;;;67.28;35.17;;;;;;;;;;5095541;28;20437;-80
2024/01/11 11:15:58;;;;;;;69.05;34.25;;;;;;;;;;5095382;28;20050;-80
2024/01/11 11:18:24;;;;;;;63.72;34.33;;;;;;;;;;5098182;28;20135;-80
2024/01/11 11:20:51;;;;;;;59.75;32.92;;;;;;;;;;5082190;28;20446;-80
2024/01/11 11:23:18;;;;;;;69.78;34.72;;;;;;;;;;5097613;28;20047;-81
2024/01/11 11:25:48;;;;;;;61.97;32.33;;;;;;;;;;5098927;28;20083;-80
2024/01/11 11:28:16;;;;;;;66.90;34.85;;;;;;;;;;5099535;28;20139;-80
2024/01/11 11:30:43;;;;;;;66.30;33.78;;;;;;;;;;5099115;28;20053;-80
2024/01/11 11:33:19;;;;;;;64.63;32.78;;;;;;;;;;5116900;28;20055;-80
2024/01/11 11:35:49;;;;;;;61.17;30.85;;;;;;;;;;5111345;27;20051;-80
2024/01/11 11:38:19;;;;;;;57.92;29.80;;;;;;;;;;5149206;27;20042;-80
2024/01/11 11:40:47;;;;;;;61.92;31.77;;;;;;;;;;5133754;27;20042;-80
2024/01/11 11:43:13;;;;;;;54.90;30.38;;;;;;;;;;5140492;27;20065;-80
2024/01/11 11:45:41;;;;;;;60.33;32.63;;;;;;;;;;5140032;27;20053;-80
2024/01/11 11:48:26;;;;;;;64.22;32.78;;;;;;;;;;5139659;27;20055;-80
2024/01/11 11:51:02;;;;;;;70.40;34.60;;;;;;;;;;5139502;27;20090;-80
2024/01/11 11:53:31;;;;;;;68.15;34.70;;;;;;;;;;5140184;27;20051;-80
2024/01/11 11:55:57;;;;;;;60.50;32.25;;;;;;;;;;5139895;27;20074;-80
2024/01/11 11:58:23;;;;;;;59.80;31.77;;;;;;;;;;5158087;27;20042;-80
2024/01/11 12:00:49;;;;;;;61.40;31.73;;;;;;;;;;5139570;27;20174;-80
2024/01/11 12:03:17;;;;;;;58.13;29.58;;;;;;;;;;5139348;27;20038;-80
2024/01/11 12:05:43;;;;;;;66.25;32.50;;;;;;;;;;5157957;27;20046;-80
2024/01/11 12:08:10;;;;;;;57.70;32.10;;;;;;;;;;5139957;27;20505;-80
2024/01/11 12:10:36;;;;;;;55.97;32.30;;;;;;;;;;5156769;27;20481;-80
2024/01/11 12:13:02;;;;;;;57.50;31.20;;;;;;;;;;5146218;27;20043;-80
2024/01/11 12:15:29;;;;;;;59.65;30.67;;;;;;;;;;5129296;27;20048;-80
2024/01/11 12:17:59;;;;;;;57.92;29.95;;;;;;;;;;5142392;27;20035;-80
2024/01/11 12:20:25;;;;;;;61.42;30.83;;;;;;;;;;5118827;27;20170;-80
2024/01/11 12:22:51;;;;;;;55.97;30.45;;;;;;;;;;5137001;27;20055;-80
2024/01/11 12:25:17;;;;;;;54.85;29.90;;;;;;;;;;5101715;27;20047;-81
2024/01/11 12:27:43;;;;;;;50.95;28.15;;;;;;;;;;5136780;27;20046;-80
2024/01/11 12:30:14;;;;;;;50.88;28.02;;;;;;;;;;5117386;27;20047;-80
2024/01/11 12:32:40;;;;;;;53.08;28.60;;;;;;;;;;5118158;27;20047;-80
2024/01/11 12:35:06;;;;;;;48.58;27.35;;;;;;;;;;5136400;27;20081;-80
2024/01/11 12:37:32;;;;;;;44.47;26.48;;;;;;;;;;5136578;27;20075;-80
2024/01/11 12:39:59;;;;;;;49.47;25.52;;;;;;;;;;5118347;27;20050;-80
2024/01/11 12:42:25;;;;;;;50.13;28.35;;;;;;;;;;5118429;27;20051;-83
2024/01/11 12:44:51;;;;;;;54.92;27.38;;;;;;;;;;5118096;27;20087;-82
2024/01/11 12:47:18;;;;;;;47.33;26.85;;;;;;;;;;5122394;27;20039;-82
2024/01/11 12:49:45;;;;;;;41.95;25.52;;;;;;;;;;5117876;27;20479;-82
2024/01/11 12:52:21;;;;;;;45.35;25.08;;;;;;;;;;5117753;27;20054;-81
2024/01/11 12:54:52;;;;;;;49.10;26.58;;;;;;;;;;5118224;27;20051;-82
2024/01/11 12:57:19;;;;;;;44.00;24.92;;;;;;;;;;5118119;27;20055;-82
2024/01/11 12:59:46;;;;;;;43.25;25.50;;;;;;;;;;5117664;27;20039;-81
2024/01/11 13:02:15;;;;;;;49.15;25.80;;;;;;;;;;5117039;27;20450;-82
2024/01/11 13:04:41;;;;;;;46.42;25.70;;;;;;;;;;5117348;27;20042;-81
2024/01/11 13:07:07;;;;;;;43.25;25.02;;;;;;;;;;5117493;27;20070;-83
2024/01/11 13:09:33;;;;;;;45.10;24.95;;;;;;;;;;5117758;27;20043;-83
2024/01/11 13:11:59;;;;;;;43.78;24.52;;;;;;;;;;5117719;27;20043;-81
2024/01/11 13:14:26;;;;;;;46.47;25.83;;;;;;;;;;5117539;27;20174;-80
2024/01/11 13:16:52;;;;;;;44.42;25.13;;;;;;;;;;5117744;27;20046;-80
2024/01/11 13:19:18;;;;;;;48.20;26.35;;;;;;;;;;5117779;27;20043;-80
2024/01/11 13:21:44;;;;;;;44.40;25.65;;;;;;;;;;5135728;27;20051;-80
2024/01/11 13:24:12;;;;;;;44.88;25.63;;;;;;;;;;5135608;27;20043;-80
2024/01/11 13:26:40;;;;;;;44.08;26.05;;;;;;;;;;5121509;27;20095;-80
2024/01/11 13:29:06;;;;;;;47.17;25.23;;;;;;;;;;5117447;27;20043;-80
2024/01/11 13:31:35;;;;;;;49.15;26.10;;;;;;;;;;5116726;27;20050;-80
2024/01/11 13:34:01;;;;;;;45.55;25.63;;;;;;;;;;5117384;27;20046;-80
2024/01/11 13:36:27;;;;;;;48.78;25.77;;;;;;;;;;5117085;27;20052;-80
2024/01/11 13:38:53;;;;;;;44.30;25.45;;;;;;;;;;5135382;27;20047;-80
2024/01/11 13:41:19;;;;;;;47.92;25.48;;;;;;;;;;5117011;27;20196;-80
2024/01/11 13:43:45;;;;;;;48.35;26.55;;;;;;;;;;5135638;27;20054;-84
2024/01/11 13:46:16;;;;;;;56.42;28.75;;;;;;;;;;5116895;27;20045;-81
2024/01/11 13:48:42;;;;;;;48.70;26.02;;;;;;;;;;5117406;27;20055;-80
2024/01/11 13:51:12;;;;;;;51.92;26.30;;;;;;;;;;5113252;28;20051;-81
2024/01/11 13:53:38;;;;;;;55.75;28.48;;;;;;;;;;5114865;28;20119;-82
2024/01/11 13:56:05;;;;;;;50.78;28.15;;;;;;;;;;5096953;28;20445;-81
2024/01/11 13:58:32;;;;;;;53.40;27.75;;;;;;;;;;5114637;28;20104;-79
2024/01/11 14:00:58;;;;;;;52.15;28.55;;;;;;;;;;5114536;28;20047;-89
2024/01/11 14:03:24;;;;;;;52.92;28.40;;;;;;;;;;5095903;28;20048;-86
2024/01/11 14:05:50;;;;;;;56.30;29.02;;;;;;;;;;5113510;28;20043;-82
2024/01/11 14:08:16;;;;;;;59.25;27.92;;;;;;;;;;5096208;28;20126;-83
2024/01/11 14:10:42;;;;;;;48.35;26.95;;;;;;;;;;5096267;28;20112;-80
2024/01/11 14:13:09;;;;;;;50.97;27.55;;;;;;;;;;5110646;28;20051;-80